sensor_id;sensor_type;location;lat;lon;timestamp;pressure;altitude;pressure_sealevel;temperature;humidity
39891;BME280;25564;53.312;9.790;2023-12-14T00:00:42;100246.88;;;4.37;100.00
39891;BME280;25564;53.312;9.790;2023-12-14T00:03:14;100246.00;;;4.41;100.00
39891;BME280;25564;53.312;9.790;2023-12-14T00:05:45;100257.38;;;4.45;100.00
39891;BME280;25564;53.312;9.790;2023-12-14T00:08:16;100252.13;;;4.46;100.00
39891;BME280;25564;53.312;9.790;2023-12-14T00:10:48;100262.63;;;4.49;100.00
39891;BME280;25564;53.312;9.790;2023-12-14T00:13:21;100255.63;;;4.51;100.00
39891;BME280;25564;53.312;9.790;2023-12-14T00:15:52;100260.00;;;4.57;100.00
39891;BME280;25564;53.312;9.790;2023-12-14T00:18:24;100263.50;;;4.60;100.00
39891;BME280;25564;53.312;9.790;2023-12-14T00:20:56;100269.63;;;4.63;100.00
39891;BME280;25564;53.312;9.790;2023-12-14T00:23:27;100269.63;;;4.63;100.00
39891;BME280;25564;53.312;9.790;2023-12-14T00:25:58;100267.88;;;4.68;100.00
39891;BME280;25564;53.312;9.790;2023-12-14T00:28:30;100269.63;;;4.69;100.00
39891;BME280;25564;53.312;9.790;2023-12-14T00:31:05;100280.13;;;4.75;100.00
39891;BME280;25564;53.312;9.790;2023-12-14T00:33:36;100291.53;;;4.77;100.00
39891;BME280;25564;53.312;9.790;2023-12-14T00:36:08;100309.91;;;4.83;100.00
39891;BME280;25564;53.312;9.790;2023-12-14T00:38:39;100312.53;;;4.86;100.00
39891;BME280;25564;53.312;9.790;2023-12-14T00:41:11;100311.66;;;4.90;100.00
39891;BME280;25564;53.312;9.790;2023-12-14T00:43:42;100323.06;;;4.93;100.00
39891;BME280;25564;53.312;9.790;2023-12-14T00:46:14;100312.53;;;4.95;100.00
39891;BME280;25564;53.312;9.790;2023-12-14T00:48:45;100318.66;;;4.94;100.00
39891;BME280;25564;53.312;9.790;2023-12-14T00:51:17;100312.53;;;4.93;100.00
39891;BME280;25564;53.312;9.790;2023-12-14T00:53:48;100325.69;;;4.97;100.00
39891;BME280;25564;53.312;9.790;2023-12-14T00:56:19;100330.94;;;4.98;100.00
39891;BME280;25564;53.312;9.790;2023-12-14T00:58:52;100335.31;;;4.99;100.00
39891;BME280;25564;53.312;9.790;2023-12-14T01:01:23;100336.19;;;5.01;100.00
39891;BME280;25564;53.312;9.790;2023-12-14T01:03:55;100335.31;;;5.05;100.00
39891;BME280;25564;53.312;9.790;2023-12-14T01:06:27;100339.69;;;5.03;100.00
39891;BME280;25564;53.312;9.790;2023-12-14T01:08:58;100340.56;;;5.04;100.00
39891;BME280;25564;53.312;9.790;2023-12-14T01:11:30;100358.09;;;5.09;100.00
39891;BME280;25564;53.312;9.790;2023-12-14T01:14:01;100353.72;;;5.13;100.00
39891;BME280;25564;53.312;9.790;2023-12-14T01:16:33;100361.59;;;5.13;100.00
39891;BME280;25564;53.312;9.790;2023-12-14T01:19:04;100361.59;;;5.11;100.00
39891;BME280;25564;53.312;9.790;2023-12-14T01:21:37;100365.13;;;5.04;100.00
39891;BME280;25564;53.312;9.790;2023-12-14T01:24:08;100359.00;;;4.90;100.00
39891;BME280;25564;53.312;9.790;2023-12-14T01:26:39;100381.78;;;4.91;100.00
39891;BME280;25564;53.312;9.790;2023-12-14T01:29:11;100383.53;;;4.86;100.00
39891;BME280;25564;53.312;9.790;2023-12-14T01:31:43;100387.91;;;4.82;100.00
39891;BME280;25564;53.312;9.790;2023-12-14T01:34:14;100396.66;;;4.84;100.00
39891;BME280;25564;53.312;9.790;2023-12-14T01:36:46;100392.28;;;4.82;100.00
39891;BME280;25564;53.312;9.790;2023-12-14T01:39:18;100388.78;;;4.83;100.00
39891;BME280;25564;53.312;9.790;2023-12-14T01:41:49;100394.91;;;4.83;100.00
39891;BME280;25564;53.312;9.790;2023-12-14T01:44:21;100394.03;;;4.84;100.00
39891;BME280;25564;53.312;9.790;2023-12-14T01:46:53;100408.06;;;4.86;100.00
39891;BME280;25564;53.312;9.790;2023-12-14T01:49:24;100405.44;;;4.86;100.00
39891;BME280;25564;53.312;9.790;2023-12-14T01:51:55;100415.94;;;4.88;100.00
39891;BME280;25564;53.312;9.790;2023-12-14T01:54:27;100413.31;;;4.88;100.00
39891;BME280;25564;53.312;9.790;2023-12-14T01:56:58;100411.56;;;4.88;100.00
39891;BME280;25564;53.312;9.790;2023-12-14T01:59:29;100418.59;;;4.89;100.00
39891;BME280;25564;53.312;9.790;2023-12-14T02:02:01;100415.06;;;4.92;100.00
39891;BME280;25564;53.312;9.790;2023-12-14T02:04:34;100415.97;;;4.97;100.00
39891;BME280;25564;53.312;9.790;2023-12-14T02:07:05;100418.59;;;4.97;100.00
39891;BME280;25564;53.312;9.790;2023-12-14T02:09:37;100425.59;;;5.01;100.00
39891;BME280;25564;53.312;9.790;2023-12-14T02:12:09;100413.31;;;5.03;100.00
39891;BME280;25564;53.312;9.790;2023-12-14T02:14:40;100408.94;;;5.07;100.00
39891;BME280;25564;53.312;9.790;2023-12-14T02:17:11;100401.06;;;5.07;100.00
39891;BME280;25564;53.312;9.790;2023-12-14T02:19:43;100423.84;;;5.12;100.00
39891;BME280;25564;53.312;9.790;2023-12-14T02:22:16;100416.84;;;5.14;100.00
39891;BME280;25564;53.312;9.790;2023-12-14T02:24:48;100417.72;;;5.13;100.00
39891;BME280;25564;53.312;9.790;2023-12-14T02:27:19;100417.72;;;5.15;100.00
39891;BME280;25564;53.312;9.790;2023-12-14T02:29:50;100416.84;;;5.16;100.00
39891;BME280;25564;53.312;9.790;2023-12-14T02:32:22;100434.38;;;5.18;100.00
39891;BME280;25564;53.312;9.790;2023-12-14T02:34:56;100413.31;;;5.18;100.00
39891;BME280;25564;53.312;9.790;2023-12-14T02:37:28;100410.69;;;5.17;100.00
39891;BME280;25564;53.312;9.790;2023-12-14T02:40:00;100405.44;;;5.20;100.00
39891;BME280;25564;53.312;9.790;2023-12-14T02:42:32;100419.47;;;5.19;100.00
39891;BME280;25564;53.312;9.790;2023-12-14T02:45:04;100420.34;;;5.16;100.00
39891;BME280;25564;53.312;9.790;2023-12-14T02:47:36;100428.19;;;5.21;100.00
39891;BME280;25564;53.312;9.790;2023-12-14T02:50:08;100425.59;;;5.19;100.00
39891;BME280;25564;53.312;9.790;2023-12-14T02:52:40;100429.09;;;5.18;100.00
39891;BME280;25564;53.312;9.790;2023-12-14T02:55:11;100426.47;;;5.14;100.00
39891;BME280;25564;53.312;9.790;2023-12-14T02:57:43;100427.34;;;5.11;100.00
39891;BME280;25564;53.312;9.790;2023-12-14T03:00:16;100440.50;;;5.08;100.00
39891;BME280;25564;53.312;9.790;2023-12-14T03:02:47;100455.41;;;5.09;100.00
39891;BME280;25564;53.312;9.790;2023-12-14T03:05:19;100456.28;;;5.08;100.00
39891;BME280;25564;53.312;9.790;2023-12-14T03:07:51;100465.06;;;5.13;100.00
39891;BME280;25564;53.312;9.790;2023-12-14T03:10:23;100470.31;;;5.13;100.00
39891;BME280;25564;53.312;9.790;2023-12-14T03:12:54;100472.91;;;5.22;100.00
39891;BME280;25564;53.312;9.790;2023-12-14T03:15:25;100469.41;;;5.26;100.00
39891;BME280;25564;53.312;9.790;2023-12-14T03:17:57;100482.56;;;5.30;100.00
39891;BME280;25564;53.312;9.790;2023-12-14T03:20:29;100482.56;;;5.31;100.00
39891;BME280;25564;53.312;9.790;2023-12-14T03:23:01;100483.44;;;5.35;100.00
39891;BME280;25564;53.312;9.790;2023-12-14T03:25:33;100493.09;;;5.40;100.00
39891;BME280;25564;53.312;9.790;2023-12-14T03:28:04;100495.72;;;5.45;100.00
39891;BME280;25564;53.312;9.790;2023-12-14T03:30:36;100506.25;;;5.45;100.00
39891;BME280;25564;53.312;9.790;2023-12-14T03:33:07;100500.97;;;5.42;100.00
39891;BME280;25564;53.312;9.790;2023-12-14T03:35:39;100512.38;;;5.47;100.00
39891;BME280;25564;53.312;9.790;2023-12-14T03:38:13;100515.00;;;5.47;100.00
39891;BME280;25564;53.312;9.790;2023-12-14T03:40:45;100519.41;;;5.48;100.00
39891;BME280;25564;53.312;9.790;2023-12-14T03:43:16;100522.91;;;5.44;100.00
39891;BME280;25564;53.312;9.790;2023-12-14T03:45:47;100521.16;;;5.41;100.00
39891;BME280;25564;53.312;9.790;2023-12-14T03:48:19;100527.28;;;5.45;100.00
39891;BME280;25564;53.312;9.790;2023-12-14T03:50:50;100534.31;;;5.40;100.00
39891;BME280;25564;53.312;9.790;2023-12-14T03:53:21;100533.44;;;5.35;100.00
39891;BME280;25564;53.312;9.790;2023-12-14T03:55:54;100530.81;;;5.35;100.00
39891;BME280;25564;53.312;9.790;2023-12-14T03:58:26;100536.94;;;5.32;100.00
39891;BME280;25564;53.312;9.790;2023-12-14T04:00:57;100540.44;;;5.33;100.00
39891;BME280;25564;53.312;9.790;2023-12-14T04:03:29;100537.81;;;5.26;100.00
39891;BME280;25564;53.312;9.790;2023-12-14T04:06:00;100529.91;;;5.26;100.00
39891;BME280;25564;53.312;9.790;2023-12-14T04:08:32;100545.69;;;5.28;100.00
39891;BME280;25564;53.312;9.790;2023-12-14T04:11:03;100550.09;;;5.34;100.00
39891;BME280;25564;53.312;9.790;2023-12-14T04:13:35;100546.59;;;5.35;100.00
39891;BME280;25564;53.312;9.790;2023-12-14T04:16:06;100547.47;;;5.37;100.00
39891;BME280;25564;53.312;9.790;2023-12-14T04:18:38;100562.38;;;5.41;100.00
39891;BME280;25564;53.312;9.790;2023-12-14T04:21:09;100564.13;;;5.42;100.00
39891;BME280;25564;53.312;9.790;2023-12-14T04:23:40;100561.50;;;5.46;100.00
39891;BME280;25564;53.312;9.790;2023-12-14T04:26:12;100562.38;;;5.47;100.00
39891;BME280;25564;53.312;9.790;2023-12-14T04:28:45;100569.41;;;5.51;100.00
39891;BME280;25564;53.312;9.790;2023-12-14T04:31:17;100560.63;;;5.52;100.00
39891;BME280;25564;53.312;9.790;2023-12-14T04:33:49;100573.78;;;5.53;100.00
39891;BME280;25564;53.312;9.790;2023-12-14T04:36:20;100572.03;;;5.52;100.00
39891;BME280;25564;53.312;9.790;2023-12-14T04:38:52;100576.44;;;5.50;100.00
39891;BME280;25564;53.312;9.790;2023-12-14T04:41:23;100576.44;;;5.52;100.00
39891;BME280;25564;53.312;9.790;2023-12-14T04:43:55;100581.69;;;5.52;100.00
39891;BME280;25564;53.312;9.790;2023-12-14T04:46:26;100589.59;;;5.55;100.00
39891;BME280;25564;53.312;9.790;2023-12-14T04:48:57;100592.22;;;5.55;100.00
39891;BME280;25564;53.312;9.790;2023-12-14T04:51:29;100596.59;;;5.57;100.00
39891;BME280;25564;53.312;9.790;2023-12-14T04:54:00;100604.50;;;5.59;100.00
39891;BME280;25564;53.312;9.790;2023-12-14T04:56:32;100610.66;;;5.61;100.00
39891;BME280;25564;53.312;9.790;2023-12-14T04:59:03;100615.03;;;5.59;100.00
39891;BME280;25564;53.312;9.790;2023-12-14T05:01:35;100615.03;;;5.59;100.00
39891;BME280;25564;53.312;9.790;2023-12-14T05:04:07;100619.44;;;5.63;100.00
39891;BME280;25564;53.312;9.790;2023-12-14T05:06:38;100616.78;;;5.63;100.00
39891;BME280;25564;53.312;9.790;2023-12-14T05:09:10;100621.19;;;5.63;100.00
39891;BME280;25564;53.312;9.790;2023-12-14T05:11:42;100620.31;;;5.65;100.00
39891;BME280;25564;53.312;9.790;2023-12-14T05:14:14;100636.09;;;5.65;100.00
39891;BME280;25564;53.312;9.790;2023-12-14T05:16:45;100630.84;;;5.59;100.00
39891;BME280;25564;53.312;9.790;2023-12-14T05:19:17;100643.13;;;5.63;100.00
39891;BME280;25564;53.312;9.790;2023-12-14T05:21:48;100646.63;;;5.62;100.00
39891;BME280;25564;53.312;9.790;2023-12-14T05:24:20;100651.88;;;5.62;100.00
39891;BME280;25564;53.312;9.790;2023-12-14T05:26:52;100656.28;;;5.58;100.00
39891;BME280;25564;53.312;9.790;2023-12-14T05:29:23;100651.00;;;5.58;100.00
39891;BME280;25564;53.312;9.790;2023-12-14T05:31:54;100658.91;;;5.60;100.00
39891;BME280;25564;53.312;9.790;2023-12-14T05:34:27;100658.91;;;5.57;100.00
39891;BME280;25564;53.312;9.790;2023-12-14T05:36:58;100660.66;;;5.58;100.00
39891;BME280;25564;53.312;9.790;2023-12-14T05:39:29;100669.44;;;5.60;100.00
39891;BME280;25564;53.312;9.790;2023-12-14T05:42:01;100679.09;;;5.61;100.00
39891;BME280;25564;53.312;9.790;2023-12-14T05:44:32;100679.09;;;5.61;100.00
39891;BME280;25564;53.312;9.790;2023-12-14T05:47:03;100681.72;;;5.61;100.00
39891;BME280;25564;53.312;9.790;2023-12-14T05:49:35;100694.88;;;5.63;100.00
39891;BME280;25564;53.312;9.790;2023-12-14T05:52:06;100694.88;;;5.61;100.00
39891;BME280;25564;53.312;9.790;2023-12-14T05:54:38;100694.00;;;5.62;100.00
39891;BME280;25564;53.312;9.790;2023-12-14T05:57:13;100698.41;;;5.63;100.00
39891;BME280;25564;53.312;9.790;2023-12-14T05:59:45;100706.31;;;5.66;100.00
39891;BME280;25564;53.312;9.790;2023-12-14T06:02:17;100715.06;;;5.65;100.00
39891;BME280;25564;53.312;9.790;2023-12-14T06:04:48;100718.59;;;5.70;100.00
39891;BME280;25564;53.312;9.790;2023-12-14T06:07:20;100719.47;;;5.72;100.00
39891;BME280;25564;53.312;9.790;2023-12-14T06:09:51;100720.34;;;5.71;100.00
39891;BME280;25564;53.312;9.790;2023-12-14T06:12:22;100711.59;;;5.72;100.00
39891;BME280;25564;53.312;9.790;2023-12-14T06:14:54;100712.47;;;5.71;100.00
39891;BME280;25564;53.312;9.790;2023-12-14T06:17:25;100708.06;;;5.70;100.00
39891;BME280;25564;53.312;9.790;2023-12-14T06:20:01;100705.44;;;5.66;100.00
39891;BME280;25564;53.312;9.790;2023-12-14T06:22:38;100727.38;;;5.69;100.00
39891;BME280;25564;53.312;9.790;2023-12-14T06:25:10;100724.72;;;5.65;100.00
39891;BME280;25564;53.312;9.790;2023-12-14T06:27:41;100727.38;;;5.66;100.00
39891;BME280;25564;53.312;9.790;2023-12-14T06:30:13;100726.50;;;5.66;100.00
39891;BME280;25564;53.312;9.790;2023-12-14T06:32:45;100740.53;;;5.66;100.00
39891;BME280;25564;53.312;9.790;2023-12-14T06:35:16;100748.44;;;5.66;100.00
39891;BME280;25564;53.312;9.790;2023-12-14T06:37:48;100744.91;;;5.67;100.00
39891;BME280;25564;53.312;9.790;2023-12-14T06:40:19;100758.97;;;5.68;100.00
39891;BME280;25564;53.312;9.790;2023-12-14T06:42:51;100760.72;;;5.67;100.00
39891;BME280;25564;53.312;9.790;2023-12-14T06:45:22;100766.00;;;5.70;100.00
39891;BME280;25564;53.312;9.790;2023-12-14T06:47:54;100762.47;;;5.68;100.00
39891;BME280;25564;53.312;9.790;2023-12-14T06:50:25;100770.38;;;5.68;100.00
39891;BME280;25564;53.312;9.790;2023-12-14T06:52:57;100774.78;;;5.71;100.00
39891;BME280;25564;53.312;9.790;2023-12-14T06:55:28;100770.38;;;5.70;100.00
39891;BME280;25564;53.312;9.790;2023-12-14T06:57:59;100773.00;;;5.68;100.00
39891;BME280;25564;53.312;9.790;2023-12-14T07:00:31;100773.00;;;5.65;100.00
39891;BME280;25564;53.312;9.790;2023-12-14T07:03:02;100781.75;;;5.64;100.00
39891;BME280;25564;53.312;9.790;2023-12-14T07:05:34;100787.91;;;5.66;100.00
39891;BME280;25564;53.312;9.790;2023-12-14T07:08:06;100785.28;;;5.63;100.00
39891;BME280;25564;53.312;9.790;2023-12-14T07:10:37;100787.03;;;5.66;100.00
39891;BME280;25564;53.312;9.790;2023-12-14T07:13:09;100795.81;;;5.66;100.00
39891;BME280;25564;53.312;9.790;2023-12-14T07:15:40;100801.94;;;5.65;100.00
39891;BME280;25564;53.312;9.790;2023-12-14T07:18:12;100802.81;;;5.64;100.00
39891;BME280;25564;53.312;9.790;2023-12-14T07:20:43;100808.97;;;5.66;100.00
39891;BME280;25564;53.312;9.790;2023-12-14T07:23:15;100815.13;;;5.65;100.00
39891;BME280;25564;53.312;9.790;2023-12-14T07:25:46;100815.13;;;5.65;100.00
39891;BME280;25564;53.312;9.790;2023-12-14T07:28:17;100812.47;;;5.65;100.00
39891;BME280;25564;53.312;9.790;2023-12-14T07:30:49;100818.63;;;5.66;100.00
39891;BME280;25564;53.312;9.790;2023-12-14T07:33:20;100824.78;;;5.66;100.00
39891;BME280;25564;53.312;9.790;2023-12-14T07:35:52;100833.53;;;5.64;100.00
39891;BME280;25564;53.312;9.790;2023-12-14T07:38:23;100837.06;;;5.66;100.00
39891;BME280;25564;53.312;9.790;2023-12-14T07:40:55;100843.22;;;5.69;100.00
39891;BME280;25564;53.312;9.790;2023-12-14T07:43:26;100842.31;;;5.67;100.00
39891;BME280;25564;53.312;9.790;2023-12-14T07:45:57;100850.25;;;5.70;100.00
39891;BME280;25564;53.312;9.790;2023-12-14T07:48:29;100856.38;;;5.71;100.00
39891;BME280;25564;53.312;9.790;2023-12-14T07:51:01;100866.03;;;5.70;100.00
39891;BME280;25564;53.312;9.790;2023-12-14T07:53:32;100873.06;;;5.71;100.00
39891;BME280;25564;53.312;9.790;2023-12-14T07:56:04;100875.69;;;5.71;100.00
39891;BME280;25564;53.312;9.790;2023-12-14T07:58:36;100883.59;;;5.74;100.00
39891;BME280;25564;53.312;9.790;2023-12-14T08:01:07;100890.66;;;5.77;100.00
39891;BME280;25564;53.312;9.790;2023-12-14T08:03:39;100890.66;;;5.81;100.00
39891;BME280;25564;53.312;9.790;2023-12-14T08:06:10;100894.19;;;5.82;100.00
39891;BME280;25564;53.312;9.790;2023-12-14T08:08:43;100903.91;;;5.89;100.00
39891;BME280;25564;53.312;9.790;2023-12-14T08:11:15;100903.03;;;5.92;100.00
39891;BME280;25564;53.312;9.790;2023-12-14T08:13:46;100898.66;;;5.94;100.00
39891;BME280;25564;53.312;9.790;2023-12-14T08:16:18;100902.16;;;5.94;100.00
39891;BME280;25564;53.312;9.790;2023-12-14T08:18:51;100916.22;;;5.95;100.00
39891;BME280;25564;53.312;9.790;2023-12-14T08:21:23;100906.56;;;5.98;100.00
39891;BME280;25564;53.312;9.790;2023-12-14T08:23:55;100917.97;;;5.94;100.00
39891;BME280;25564;53.312;9.790;2023-12-14T08:26:26;100910.97;;;5.96;100.00
39891;BME280;25564;53.312;9.790;2023-12-14T08:28:58;100925.91;;;5.99;100.00
39891;BME280;25564;53.312;9.790;2023-12-14T08:31:30;100931.16;;;6.00;100.00
39891;BME280;25564;53.312;9.790;2023-12-14T08:34:01;100939.94;;;6.01;100.00
39891;BME280;25564;53.312;9.790;2023-12-14T08:36:33;100943.47;;;6.03;100.00
39891;BME280;25564;53.312;9.790;2023-12-14T08:39:04;100946.97;;;6.02;100.00
39891;BME280;25564;53.312;9.790;2023-12-14T08:41:35;100946.13;;;6.04;100.00
39891;BME280;25564;53.312;9.790;2023-12-14T08:44:07;100949.63;;;6.06;100.00
39891;BME280;25564;53.312;9.790;2023-12-14T08:46:46;100947.00;;;6.06;100.00
39891;BME280;25564;53.312;9.790;2023-12-14T08:49:18;100961.94;;;6.09;100.00
39891;BME280;25564;53.312;9.790;2023-12-14T08:51:49;100954.91;;;6.08;100.00
39891;BME280;25564;53.312;9.790;2023-12-14T08:54:20;100965.47;;;6.09;100.00
39891;BME280;25564;53.312;9.790;2023-12-14T08:56:52;100963.72;;;6.10;100.00
39891;BME280;25564;53.312;9.790;2023-12-14T08:59:23;100971.63;;;6.13;100.00
39891;BME280;25564;53.312;9.790;2023-12-14T09:01:55;100967.22;;;6.12;100.00
39891;BME280;25564;53.312;9.790;2023-12-14T09:04:27;100964.59;;;6.10;100.00
39891;BME280;25564;53.312;9.790;2023-12-14T09:06:58;100974.25;;;6.13;100.00
39891;BME280;25564;53.312;9.790;2023-12-14T09:09:30;100977.78;;;6.15;100.00
39891;BME280;25564;53.312;9.790;2023-12-14T09:12:03;100980.41;;;6.15;100.00
39891;BME280;25564;53.312;9.790;2023-12-14T09:14:34;100981.31;;;6.17;100.00
39891;BME280;25564;53.312;9.790;2023-12-14T09:17:06;100989.22;;;6.17;100.00
39891;BME280;25564;53.312;9.790;2023-12-14T09:19:37;100984.81;;;6.17;100.00
39891;BME280;25564;53.312;9.790;2023-12-14T09:22:09;100996.25;;;6.19;100.00
39891;BME280;25564;53.312;9.790;2023-12-14T09:24:40;101001.53;;;6.21;100.00
39891;BME280;25564;53.312;9.790;2023-12-14T09:27:11;101000.63;;;6.25;100.00
39891;BME280;25564;53.312;9.790;2023-12-14T09:29:43;101012.97;;;6.31;100.00
39891;BME280;25564;53.312;9.790;2023-12-14T09:32:14;101020.00;;;6.32;100.00
39891;BME280;25564;53.312;9.790;2023-12-14T09:34:48;101020.84;;;6.29;100.00
39891;BME280;25564;53.312;9.790;2023-12-14T09:37:19;101021.75;;;6.33;100.00
39891;BME280;25564;53.312;9.790;2023-12-14T09:39:51;101019.97;;;6.30;100.00
39891;BME280;25564;53.312;9.790;2023-12-14T09:42:22;101018.25;;;6.34;100.00
39891;BME280;25564;53.312;9.790;2023-12-14T09:44:53;101024.41;;;6.40;100.00
39891;BME280;25564;53.312;9.790;2023-12-14T09:47:26;101019.16;;;6.45;100.00
39891;BME280;25564;53.312;9.790;2023-12-14T09:49:58;101018.31;;;6.50;100.00
39891;BME280;25564;53.312;9.790;2023-12-14T09:52:31;101013.06;;;6.53;100.00
39891;BME280;25564;53.312;9.790;2023-12-14T09:55:04;101022.72;;;6.57;100.00
39891;BME280;25564;53.312;9.790;2023-12-14T09:57:36;101024.50;;;6.59;100.00
39891;BME280;25564;53.312;9.790;2023-12-14T10:00:08;101029.78;;;6.62;100.00
39891;BME280;25564;53.312;9.790;2023-12-14T10:02:45;101027.16;;;6.65;100.00
39891;BME280;25564;53.312;9.790;2023-12-14T10:05:19;101035.06;;;6.68;100.00
39891;BME280;25564;53.312;9.790;2023-12-14T10:07:51;101039.50;;;6.75;100.00
39891;BME280;25564;53.312;9.790;2023-12-14T10:10:29;101045.66;;;6.77;100.00
39891;BME280;25564;53.312;9.790;2023-12-14T10:13:01;101047.41;;;6.78;100.00
39891;BME280;25564;53.312;9.790;2023-12-14T10:15:41;101042.16;;;6.81;100.00
39891;BME280;25564;53.312;9.790;2023-12-14T10:18:21;101050.94;;;6.83;100.00
39891;BME280;25564;53.312;9.790;2023-12-14T10:20:52;101069.44;;;6.89;100.00
39891;BME280;25564;53.312;9.790;2023-12-14T10:23:24;101071.19;;;6.90;100.00
39891;BME280;25564;53.312;9.790;2023-12-14T10:25:56;101072.09;;;6.94;100.00
39891;BME280;25564;53.312;9.790;2023-12-14T10:28:27;101073.84;;;6.93;100.00
39891;BME280;25564;53.312;9.790;2023-12-14T10:31:00;101082.66;;;7.01;100.00
39891;BME280;25564;53.312;9.790;2023-12-14T10:33:32;101087.97;;;7.06;100.00
39891;BME280;25564;53.312;9.790;2023-12-14T10:36:04;101080.91;;;7.06;100.00
39891;BME280;25564;53.312;9.790;2023-12-14T10:38:37;101091.50;;;7.12;100.00
39891;BME280;25564;53.312;9.790;2023-12-14T10:41:11;101093.25;;;7.16;100.00
39891;BME280;25564;53.312;9.790;2023-12-14T10:43:44;101095.91;;;7.15;100.00
39891;BME280;25564;53.312;9.790;2023-12-14T10:46:23;101097.66;;;7.16;100.00
39891;BME280;25564;53.312;9.790;2023-12-14T10:48:54;101109.09;;;7.16;100.00
39891;BME280;25564;53.312;9.790;2023-12-14T10:51:26;101104.69;;;7.15;100.00
39891;BME280;25564;53.312;9.790;2023-12-14T10:53:58;101104.69;;;7.14;100.00
39891;BME280;25564;53.312;9.790;2023-12-14T10:56:30;101112.63;;;7.15;100.00
39891;BME280;25564;53.312;9.790;2023-12-14T10:59:03;101106.44;;;7.13;100.00
39891;BME280;25564;53.312;9.790;2023-12-14T11:01:35;101114.38;;;7.15;100.00
39891;BME280;25564;53.312;9.790;2023-12-14T11:04:10;101123.19;;;7.17;100.00
39891;BME280;25564;53.312;9.790;2023-12-14T11:06:45;101123.16;;;7.15;100.00
39891;BME280;25564;53.312;9.790;2023-12-14T11:09:22;101133.75;;;7.25;100.00
39891;BME280;25564;53.312;9.790;2023-12-14T11:14:27;101135.50;;;7.19;100.00
39891;BME280;25564;53.312;9.790;2023-12-14T11:17:06;101141.66;;;7.17;100.00
39891;BME280;25564;53.312;9.790;2023-12-14T11:19:38;101149.53;;;7.09;100.00
39891;BME280;25564;53.312;9.790;2023-12-14T11:22:11;101146.00;;;7.04;100.00
39891;BME280;25564;53.312;9.790;2023-12-14T11:24:51;101157.41;;;6.97;100.00
39891;BME280;25564;53.312;9.790;2023-12-14T11:27:26;101158.28;;;6.93;100.00
39891;BME280;25564;53.312;9.790;2023-12-14T11:30:00;101169.69;;;6.89;100.00
39891;BME280;25564;53.312;9.790;2023-12-14T11:32:31;101165.25;;;6.82;100.00
39891;BME280;25564;53.312;9.790;2023-12-14T11:35:03;101168.75;;;6.78;100.00
39891;BME280;25564;53.312;9.790;2023-12-14T11:37:35;101174.91;;;6.78;100.00
39891;BME280;25564;53.312;9.790;2023-12-14T11:40:08;101167.81;;;6.70;100.00
39891;BME280;25564;53.312;9.790;2023-12-14T11:42:40;101178.34;;;6.62;100.00
39891;BME280;25564;53.312;9.790;2023-12-14T11:45:12;101183.59;;;6.59;100.00
39891;BME280;25564;53.312;9.790;2023-12-14T11:47:43;101179.16;;;6.55;100.00
39891;BME280;25564;53.312;9.790;2023-12-14T11:50:15;101177.41;;;6.55;100.00
39891;BME280;25564;53.312;9.790;2023-12-14T11:52:49;101174.78;;;6.59;100.00
39891;BME280;25564;53.312;9.790;2023-12-14T11:55:21;101191.50;;;6.61;100.00
39891;BME280;25564;53.312;9.790;2023-12-14T11:57:52;101191.50;;;6.59;100.00
39891;BME280;25564;53.312;9.790;2023-12-14T12:00:25;101185.31;;;6.54;100.00
39891;BME280;25564;53.312;9.790;2023-12-14T12:03:17;101192.31;;;6.50;100.00
39891;BME280;25564;53.312;9.790;2023-12-14T12:05:51;101185.31;;;6.52;100.00
39891;BME280;25564;53.312;9.790;2023-12-14T12:08:23;101179.16;;;6.53;100.00
39891;BME280;25564;53.312;9.790;2023-12-14T12:10:56;101180.97;;;6.61;100.00
39891;BME280;25564;53.312;9.790;2023-12-14T12:13:28;101173.94;;;6.64;100.00
39891;BME280;25564;53.312;9.790;2023-12-14T12:16:00;101182.78;;;6.71;100.00
39891;BME280;25564;53.312;9.790;2023-12-14T12:18:31;101190.75;;;6.80;100.00
39891;BME280;25564;53.312;9.790;2023-12-14T12:21:03;101181.09;;;6.83;100.00
39891;BME280;25564;53.312;9.790;2023-12-14T12:23:37;101192.53;;;6.85;100.00
39891;BME280;25564;53.312;9.790;2023-12-14T12:26:09;101188.13;;;6.86;100.00
39891;BME280;25564;53.312;9.790;2023-12-14T12:28:41;101203.09;;;6.85;100.00
39891;BME280;25564;53.312;9.790;2023-12-14T12:31:12;101197.84;;;6.90;100.00
39891;BME280;25564;53.312;9.790;2023-12-14T12:33:44;101199.56;;;6.86;100.00
39891;BME280;25564;53.312;9.790;2023-12-14T12:36:15;101204.84;;;6.86;100.00
39891;BME280;25564;53.312;9.790;2023-12-14T12:38:46;101196.06;;;6.86;100.00
39891;BME280;25564;53.312;9.790;2023-12-14T12:41:18;101203.09;;;6.88;100.00
39891;BME280;25564;53.312;9.790;2023-12-14T12:43:50;101202.22;;;6.88;100.00
39891;BME280;25564;53.312;9.790;2023-12-14T12:46:21;101205.72;;;6.85;100.00
39891;BME280;25564;53.312;9.790;2023-12-14T12:48:53;101208.34;;;6.85;100.00
39891;BME280;25564;53.312;9.790;2023-12-14T12:51:24;101218.03;;;6.88;100.00
39891;BME280;25564;53.312;9.790;2023-12-14T12:53:58;101211.91;;;6.89;100.00
39891;BME280;25564;53.312;9.790;2023-12-14T12:56:43;101215.41;;;6.86;100.00
39891;BME280;25564;53.312;9.790;2023-12-14T12:59:15;101217.16;;;6.87;100.00
39891;BME280;25564;53.312;9.790;2023-12-14T13:01:46;101223.31;;;6.85;100.00
39891;BME280;25564;53.312;9.790;2023-12-14T13:04:21;101219.78;;;6.83;100.00
39891;BME280;25564;53.312;9.790;2023-12-14T13:06:53;101229.41;;;6.78;100.00
39891;BME280;25564;53.312;9.790;2023-12-14T13:09:24;101223.22;;;6.73;100.00
39891;BME280;25564;53.312;9.790;2023-12-14T13:11:56;101232.91;;;6.74;100.00
39891;BME280;25564;53.312;9.790;2023-12-14T13:14:27;101230.25;;;6.71;100.00
39891;BME280;25564;53.312;9.790;2023-12-14T13:16:59;101232.03;;;6.75;100.00